Time;durP1;ratioP1;P1;durP2;ratioP2;P2;SDS_P1;SDS_P2;PMS_P1;PMS_P2;Temp;Humidity;BMP_temperature;BMP_pressure;BME280_temperature;BME280_humidity;BME280_pressure;Samples;Min_cycle;Max_cycle;Signal;HPM_P1;HPM_P2
2023/11/12 00:13:46;;;;;;;20.73;12.47;;;;;;;;;;12802721;22;20453;-74
2023/11/12 01:03:09;;;;;;;21.95;14.25;;;;;;;;;;12880930;22;20023;-74
2023/11/12 01:08:06;;;;;;;23.35;14.73;;;;;;;;;;12886662;22;20490;-74
2023/11/12 01:13:03;;;;;;;24.52;14.73;;;;;;;;;;12887676;22;20023;-74
2023/11/12 02:29:13;;;;;;;28.60;17.00;;;;;;;;;;12850520;22;20460;-73
2023/11/12 02:34:10;;;;;;;25.65;17.58;;;;;;;;;;12882879;22;20038;-73
2023/11/12 02:50:43;;;;;;;28.88;16.17;;;;;;;;;;12779729;22;20018;-74
2023/11/12 02:55:53;;;;;;;28.08;17.05;;;;;;;;;;12750757;22;20020;-74
2023/11/12 03:00:49;;;;;;;24.85;16.38;;;;;;;;;;12751728;22;20465;-74
2023/11/12 03:05:46;;;;;;;27.02;17.90;;;;;;;;;;12753006;22;20054;-74
2023/11/12 03:45:41;;;;;;;23.35;14.63;;;;;;;;;;12526135;23;20452;-74
2023/11/12 04:24:53;;;;;;;32.10;16.88;;;;;;;;;;12805389;22;20035;-74
2023/11/12 04:29:50;;;;;;;33.85;19.45;;;;;;;;;;12827452;22;20526;-74
2023/11/12 04:34:47;;;;;;;32.88;17.80;;;;;;;;;;12826588;22;20019;-74
2023/11/12 04:39:44;;;;;;;36.33;21.42;;;;;;;;;;12821594;22;20019;-74
2023/11/12 04:44:40;;;;;;;35.72;19.77;;;;;;;;;;12826710;22;20023;-74
2023/11/12 07:13:11;;;;;;;24.08;19.13;;;;;;;;;;12884900;22;20023;-73
2023/11/12 07:29:22;;;;;;;28.00;20.77;;;;;;;;;;12831660;22;20038;-73
2023/11/12 07:34:19;;;;;;;28.98;21.42;;;;;;;;;;12884303;22;20061;-74
2023/11/12 07:39:16;;;;;;;26.98;21.63;;;;;;;;;;12883328;22;20014;-73
2023/11/12 07:44:12;;;;;;;25.67;21.33;;;;;;;;;;12884604;22;20026;-73
2023/11/12 08:05:24;;;;;;;25.48;20.98;;;;;;;;;;12744983;22;20467;-73
2023/11/12 08:25:49;;;;;;;28.47;22.20;;;;;;;;;;12753261;22;20327;-73
2023/11/12 08:30:45;;;;;;;27.67;21.05;;;;;;;;;;12802573;22;20046;-74
2023/11/12 08:35:42;;;;;;;27.67;21.63;;;;;;;;;;12812762;22;20019;-74
2023/11/12 08:40:45;;;;;;;28.15;22.17;;;;;;;;;;12823737;22;21017;-73
2023/11/12 08:45:42;;;;;;;27.55;21.70;;;;;;;;;;12821121;22;20019;-73
2023/11/12 08:50:39;;;;;;;32.97;21.92;;;;;;;;;;12859590;22;20026;-73
2023/11/12 08:55:37;;;;;;;26.75;21.60;;;;;;;;;;12885459;22;20429;-74
2023/11/12 09:00:34;;;;;;;27.08;20.95;;;;;;;;;;12859941;22;20093;-73
2023/11/12 09:05:31;;;;;;;29.08;20.60;;;;;;;;;;12886342;22;20019;-73
2023/11/12 09:22:47;;;;;;;28.27;20.08;;;;;;;;;;12812568;22;20023;-73
2023/11/12 09:27:45;;;;;;;27.92;19.05;;;;;;;;;;12818638;22;20073;-73
2023/11/12 09:32:41;;;;;;;32.13;20.05;;;;;;;;;;12820104;22;20031;-73
2023/11/12 09:49:28;;;;;;;;;;;;;;;;;;;;;
2023/11/12 09:55:22;;;;;;;;;;;;;;;;;;;;;
2023/11/12 10:00:36;;;;;;;23.08;17.70;;;;;;;;;;12781351;22;20015;-75
2023/11/12 10:05:33;;;;;;;24.83;18.23;;;;;;;;;;12820257;22;20012;-75
2023/11/12 10:16:31;;;;;;;22.33;17.02;;;;;;;;;;12807034;22;20027;-74
2023/11/12 10:21:28;;;;;;;23.33;17.00;;;;;;;;;;12811031;22;20093;-74
2023/11/12 10:26:32;;;;;;;21.08;17.17;;;;;;;;;;12833743;22;20608;-74
2023/11/12 10:31:37;;;;;;;20.77;17.02;;;;;;;;;;12874119;22;20361;-74
2023/11/12 10:36:34;;;;;;;21.75;14.65;;;;;;;;;;12885683;22;20026;-74
2023/11/12 10:41:39;;;;;;;20.35;16.27;;;;;;;;;;12885025;22;20034;-73
2023/11/12 10:46:38;;;;;;;19.33;15.63;;;;;;;;;;12883823;22;20030;-73
2023/11/12 10:51:37;;;;;;;19.75;14.35;;;;;;;;;;12883138;22;20088;-73
2023/11/12 10:56:34;;;;;;;20.65;15.75;;;;;;;;;;12884854;22;20034;-73
2023/11/12 11:18:49;;;;;;;24.83;17.38;;;;;;;;;;12594185;22;20038;-73
2023/11/12 11:24:29;;;;;;;21.65;16.77;;;;;;;;;;12834367;22;20027;-75
2023/11/12 11:29:27;;;;;;;22.02;17.00;;;;;;;;;;12818157;22;20023;-72
2023/11/12 11:34:39;;;;;;;26.30;16.88;;;;;;;;;;12815041;22;20527;-72
2023/11/12 11:39:37;;;;;;;23.27;15.65;;;;;;;;;;12815178;22;20028;-71
2023/11/12 11:44:45;;;;;;;19.27;16.60;;;;;;;;;;12817341;22;20472;-72
2023/11/12 11:49:51;;;;;;;17.73;15.00;;;;;;;;;;12821237;22;20062;-72
2023/11/12 11:54:53;;;;;;;23.13;15.85;;;;;;;;;;12821139;22;20058;-72
2023/11/12 11:59:50;;;;;;;20.33;15.32;;;;;;;;;;12821870;22;20019;-71
2023/11/12 12:04:48;;;;;;;20.17;15.38;;;;;;;;;;12821251;22;20023;-72
2023/11/12 12:09:44;;;;;;;21.42;13.93;;;;;;;;;;12817288;22;20349;-72
2023/11/12 12:14:41;;;;;;;22.10;15.35;;;;;;;;;;12817670;22;20420;-72
2023/11/12 12:19:37;;;;;;;22.13;14.75;;;;;;;;;;12849919;22;20014;-72
2023/11/12 12:24:34;;;;;;;17.80;15.55;;;;;;;;;;12880196;22;20018;-73
2023/11/12 12:29:31;;;;;;;21.02;14.98;;;;;;;;;;12888943;22;20503;-73
2023/11/12 12:34:38;;;;;;;25.13;16.80;;;;;;;;;;12888490;22;20019;-73
2023/11/12 12:56:02;;;;;;;20.05;14.93;;;;;;;;;;12746168;22;20094;-73
2023/11/12 13:01:00;;;;;;;18.52;14.77;;;;;;;;;;12872282;22;20022;-72
2023/11/12 13:05:57;;;;;;;21.02;14.77;;;;;;;;;;12887794;22;20019;-72
2023/11/12 13:10:54;;;;;;;20.58;14.10;;;;;;;;;;12888146;22;20022;-72
2023/11/12 13:15:51;;;;;;;20.33;14.43;;;;;;;;;;12888213;22;20464;-73
2023/11/12 13:20:48;;;;;;;18.25;13.93;;;;;;;;;;12860463;22;20015;-73
2023/11/12 13:25:48;;;;;;;28.23;13.90;;;;;;;;;;12881563;22;20060;-73
2023/11/12 13:31:30;;;;;;;;;;;;;;;;;;;;;
2023/11/12 13:36:43;;;;;;;17.50;14.00;;;;;;;;;;12802714;22;20408;-73
2023/11/12 14:06:12;;;;;;;18.65;13.00;;;;;;;;;;12594919;23;20420;-73
2023/11/12 14:11:12;;;;;;;16.42;12.50;;;;;;;;;;12665724;23;20028;-73
2023/11/12 14:16:12;;;;;;;18.83;13.18;;;;;;;;;;12678474;23;20028;-73
2023/11/12 14:21:09;;;;;;;22.17;13.50;;;;;;;;;;12688453;23;20024;-73
2023/11/12 14:26:06;;;;;;;20.65;15.05;;;;;;;;;;12689105;23;20378;-73
2023/11/12 14:31:23;;;;;;;23.58;14.88;;;;;;;;;;12745254;22;20094;-72
2023/11/12 14:36:19;;;;;;;19.95;13.93;;;;;;;;;;12815727;22;20037;-72
2023/11/12 14:52:57;;;;;;;18.98;14.25;;;;;;;;;;12832125;22;20023;-73
2023/11/12 14:57:54;;;;;;;15.25;13.65;;;;;;;;;;12821625;22;20356;-73
2023/11/12 15:02:52;;;;;;;22.45;15.35;;;;;;;;;;12820630;22;20469;-72
2023/11/12 15:07:49;;;;;;;19.25;14.57;;;;;;;;;;12821580;22;20058;-72
2023/11/12 15:12:45;;;;;;;20.02;15.15;;;;;;;;;;12821373;22;20129;-72
2023/11/12 15:17:42;;;;;;;21.00;16.45;;;;;;;;;;12820766;22;20770;-72
2023/11/12 15:22:40;;;;;;;19.75;15.13;;;;;;;;;;12820825;22;20023;-73
2023/11/12 15:27:36;;;;;;;18.38;15.82;;;;;;;;;;12819566;22;20512;-74
2023/11/12 15:32:33;;;;;;;23.20;17.08;;;;;;;;;;12820948;22;20423;-74
2023/11/12 15:59:41;;;;;;;18.63;16.70;;;;;;;;;;12882421;22;20022;-73
2023/11/12 16:04:38;;;;;;;23.98;18.20;;;;;;;;;;12884601;22;20026;-73
2023/11/12 16:09:35;;;;;;;26.08;17.67;;;;;;;;;;12883140;22;20022;-73
2023/11/12 16:14:31;;;;;;;24.65;18.27;;;;;;;;;;12884729;22;20093;-73
2023/11/12 16:19:28;;;;;;;22.73;18.45;;;;;;;;;;12875611;22;20023;-73
2023/11/12 16:24:24;;;;;;;18.90;16.80;;;;;;;;;;12886590;22;20114;-73
2023/11/12 16:35:10;;;;;;;23.40;18.17;;;;;;;;;;12810124;22;20015;-73
2023/11/12 16:50:49;;;;;;;21.20;17.58;;;;;;;;;;12863129;22;20018;-73
2023/11/12 16:55:45;;;;;;;28.80;19.25;;;;;;;;;;12855110;22;20467;-74
2023/11/12 17:00:50;;;;;;;21.30;18.58;;;;;;;;;;12825063;22;20031;-74
2023/11/12 17:05:47;;;;;;;23.92;18.30;;;;;;;;;;12826127;22;20085;-74
2023/11/12 17:10:45;;;;;;;28.73;20.58;;;;;;;;;;12862340;22;20030;-74
2023/11/12 17:15:42;;;;;;;23.23;18.27;;;;;;;;;;12911823;22;20238;-74
2023/11/12 18:02:33;;;;;;;23.40;18.98;;;;;;;;;;12749170;22;20030;-74
2023/11/12 18:42:52;;;;;;;28.45;22.70;;;;;;;;;;12795926;22;20605;-75
2023/11/12 20:52:37;;;;;;;32.63;24.10;;;;;;;;;;12748102;22;20077;-74
2023/11/12 20:57:33;;;;;;;33.55;24.15;;;;;;;;;;12759601;22;20507;-69
2023/11/12 21:02:29;;;;;;;34.38;25.38;;;;;;;;;;12757588;22;20030;-68
2023/11/12 21:07:26;;;;;;;35.15;24.45;;;;;;;;;;12760568;22;20050;-68
2023/11/12 21:12:22;;;;;;;36.75;26.20;;;;;;;;;;12759486;22;20023;-68
2023/11/12 21:17:19;;;;;;;32.92;26.40;;;;;;;;;;12759381;22;20034;-69
2023/11/12 21:22:15;;;;;;;37.53;27.95;;;;;;;;;;12760795;22;20024;-69
2023/11/12 21:27:12;;;;;;;42.33;30.33;;;;;;;;;;12758261;22;20523;-69
2023/11/12 21:32:09;;;;;;;41.10;28.23;;;;;;;;;;12758568;22;20048;-69
2023/11/12 21:37:06;;;;;;;40.05;29.58;;;;;;;;;;12758309;22;20031;-70
2023/11/12 21:42:03;;;;;;;42.97;28.98;;;;;;;;;;12758133;22;20051;-70
2023/11/12 21:47:01;;;;;;;37.10;30.92;;;;;;;;;;12753674;22;20283;-69
2023/11/12 21:51:58;;;;;;;43.20;30.85;;;;;;;;;;12758252;22;20041;-68
2023/11/12 21:56:55;;;;;;;43.00;30.08;;;;;;;;;;12752988;22;20074;-69
2023/11/12 22:01:51;;;;;;;39.53;30.90;;;;;;;;;;12759489;22;20077;-70
2023/11/12 22:06:48;;;;;;;44.65;31.85;;;;;;;;;;12759533;22;20103;-69
2023/11/12 22:11:44;;;;;;;48.83;30.17;;;;;;;;;;12759997;22;20027;-70
2023/11/12 22:16:41;;;;;;;44.40;29.88;;;;;;;;;;12759854;22;20049;-70
2023/11/12 22:21:39;;;;;;;39.85;30.05;;;;;;;;;;12760588;22;20035;-69
2023/11/12 22:26:39;;;;;;;39.00;30.25;;;;;;;;;;12759615;22;20027;-70
2023/11/12 22:31:35;;;;;;;41.00;29.85;;;;;;;;;;12759122;22;20032;-69
2023/11/12 22:36:32;;;;;;;37.60;29.20;;;;;;;;;;12759240;22;20031;-69
2023/11/12 22:41:28;;;;;;;34.47;26.23;;;;;;;;;;12758923;22;20032;-68
2023/11/12 22:46:24;;;;;;;38.33;28.42;;;;;;;;;;12759241;22;20031;-69
2023/11/12 22:51:21;;;;;;;38.50;27.17;;;;;;;;;;12757749;22;20035;-70
2023/11/12 22:56:17;;;;;;;37.33;27.67;;;;;;;;;;12748178;22;20027;-69
2023/11/12 23:01:15;;;;;;;39.75;26.05;;;;;;;;;;12759360;22;20082;-70
2023/11/12 23:06:12;;;;;;;36.00;26.30;;;;;;;;;;12758698;22;20408;-68
2023/11/12 23:11:10;;;;;;;35.47;27.38;;;;;;;;;;12759053;22;20034;-68
2023/11/12 23:16:08;;;;;;;37.65;26.35;;;;;;;;;;12759933;22;20069;-69
2023/11/12 23:21:06;;;;;;;35.00;26.08;;;;;;;;;;12758652;22;20023;-69
2023/11/12 23:26:05;;;;;;;30.38;24.40;;;;;;;;;;12759608;22;20078;-69
2023/11/12 23:31:01;;;;;;;38.25;26.67;;;;;;;;;;12758812;22;20748;-69
2023/11/12 23:35:59;;;;;;;31.58;24.35;;;;;;;;;;12758024;22;20081;-68
2023/11/12 23:40:56;;;;;;;35.30;24.15;;;;;;;;;;12756906;22;20041;-69
2023/11/12 23:45:52;;;;;;;33.25;24.50;;;;;;;;;;12759064;22;20609;-69
2023/11/12 23:50:48;;;;;;;35.35;24.48;;;;;;;;;;12756758;22;20032;-69
2023/11/12 23:55:45;;;;;;;30.83;23.65;;;;;;;;;;12758963;22;20031;-69
